createdAt,value
2018-08-16T00:00:19.693Z,84.60
2018-08-16T00:02:47.590Z,85.10
2018-08-16T00:05:15.919Z,84.60
2018-08-16T00:07:43.860Z,86.20
2018-08-16T00:10:13.783Z,86.10
2018-08-16T00:12:42.896Z,86.50
2018-08-16T00:15:10.742Z,86.60
2018-08-16T00:17:39.271Z,86.90
2018-08-16T00:20:07.203Z,87.10
2018-08-16T00:22:35.078Z,87.50
2018-08-16T00:25:03.115Z,87.90
2018-08-16T00:27:30.972Z,88.10
2018-08-16T00:29:58.852Z,88.50
2018-08-16T00:32:26.750Z,88.80
2018-08-16T00:34:55.322Z,88.80
2018-08-16T00:37:23.464Z,88.80
2018-08-16T00:39:51.328Z,88.90
2018-08-16T00:42:19.162Z,89.70
2018-08-16T00:44:47.397Z,90.10
2018-08-16T00:47:15.318Z,90.30
2018-08-16T00:49:43.232Z,90.50
2018-08-16T00:52:11.089Z,90.50
2018-08-16T00:54:38.959Z,90.80
2018-08-16T00:57:06.879Z,91.00
2018-08-16T00:59:34.794Z,91.20
2018-08-16T01:02:02.714Z,91.50
2018-08-16T01:04:30.587Z,91.70
2018-08-16T01:06:58.539Z,91.80
2018-08-16T01:09:26.332Z,91.80
2018-08-16T01:11:54.291Z,91.90
2018-08-16T01:14:22.131Z,92.20
2018-08-16T01:16:50.015Z,92.20
2018-08-16T01:19:17.816Z,92.20
2018-08-16T01:21:45.717Z,92.20
2018-08-16T01:24:13.612Z,92.30
2018-08-16T01:26:41.498Z,92.30
2018-08-16T01:29:09.244Z,92.40
2018-08-16T01:31:37.120Z,92.60
2018-08-16T01:34:04.944Z,92.80
2018-08-16T01:36:32.685Z,92.90
2018-08-16T01:39:00.540Z,93.20
2018-08-16T01:41:28.395Z,93.50
2018-08-16T01:43:56.264Z,93.60
2018-08-16T01:46:24.139Z,93.60
2018-08-16T01:48:51.993Z,93.80
2018-08-16T01:51:19.856Z,93.80
2018-08-16T01:53:47.671Z,93.90
2018-08-16T01:56:15.573Z,94.10
2018-08-16T01:58:43.461Z,94.20
2018-08-16T02:01:11.413Z,94.30
2018-08-16T02:03:39.209Z,94.40
2018-08-16T02:06:07.172Z,94.40
2018-08-16T02:08:35.073Z,94.40
2018-08-16T02:11:02.911Z,94.60
2018-08-16T02:13:30.707Z,94.60
2018-08-16T02:15:58.588Z,94.80
2018-08-16T02:18:26.477Z,94.70
2018-08-16T02:20:54.312Z,94.70
2018-08-16T02:23:22.152Z,94.80
2018-08-16T02:25:50.024Z,94.80
2018-08-16T02:28:17.892Z,94.80
2018-08-16T02:30:45.824Z,94.80
2018-08-16T02:33:13.613Z,94.80
2018-08-16T02:35:41.495Z,94.70
2018-08-16T02:38:09.363Z,94.60
2018-08-16T02:40:40.700Z,94.60
2018-08-16T02:43:08.525Z,94.60
2018-08-16T02:45:36.393Z,94.70
2018-08-16T02:48:04.255Z,94.80
2018-08-16T02:50:32.114Z,94.90
2018-08-16T02:52:59.992Z,94.90
2018-08-16T02:55:27.843Z,94.90
2018-08-16T02:57:55.752Z,95.00
2018-08-16T03:00:23.608Z,95.00
2018-08-16T03:02:51.415Z,95.00
2018-08-16T03:05:19.272Z,95.10
2018-08-16T03:07:47.169Z,95.10
2018-08-16T03:10:15.001Z,95.10
2018-08-16T03:12:42.860Z,95.10
2018-08-16T03:15:10.829Z,95.10
2018-08-16T03:17:39.159Z,95.00
2018-08-16T03:20:07.348Z,95.00
2018-08-16T03:22:35.141Z,95.00
2018-08-16T03:25:02.970Z,94.90
2018-08-16T03:27:30.777Z,94.90
2018-08-16T03:29:58.620Z,94.80
2018-08-16T03:32:26.608Z,94.80
2018-08-16T03:34:54.488Z,94.80
2018-08-16T03:37:22.409Z,94.70
2018-08-16T03:39:50.263Z,94.60
2018-08-16T03:42:18.067Z,94.60
2018-08-16T03:44:45.989Z,94.60
2018-08-16T03:47:13.891Z,94.60
2018-08-16T03:49:41.808Z,94.60
2018-08-16T03:52:09.648Z,94.60
2018-08-16T03:54:37.501Z,94.60
2018-08-16T03:57:05.341Z,94.50
2018-08-16T03:59:33.136Z,94.60
2018-08-16T04:02:01.033Z,94.60
2018-08-16T04:04:28.877Z,94.50
2018-08-16T04:06:56.744Z,94.50
2018-08-16T04:09:24.621Z,94.50
2018-08-16T04:11:52.508Z,94.50
2018-08-16T04:14:20.344Z,94.90
2018-08-16T04:16:48.190Z,94.60
2018-08-16T04:19:15.988Z,94.50
2018-08-16T04:21:43.821Z,94.50
2018-08-16T04:24:11.640Z,94.50
2018-08-16T04:26:39.516Z,94.40
2018-08-16T04:29:07.638Z,94.50
2018-08-16T04:31:35.396Z,94.40
2018-08-16T04:34:03.281Z,94.40
2018-08-16T04:36:31.139Z,94.30
2018-08-16T04:38:59.041Z,94.30
2018-08-16T04:41:26.918Z,94.20
2018-08-16T04:43:54.773Z,94.00
2018-08-16T04:46:22.564Z,94.00
2018-08-16T04:48:50.385Z,93.90
2018-08-16T04:51:18.252Z,93.80
2018-08-16T04:53:46.095Z,93.70
2018-08-16T04:56:13.917Z,93.60
2018-08-16T04:58:41.822Z,93.50
2018-08-16T05:01:09.704Z,93.60
2018-08-16T05:03:37.523Z,93.20
2018-08-16T05:06:05.569Z,93.10
2018-08-16T05:08:33.396Z,93.00
2018-08-16T05:11:01.299Z,92.90
2018-08-16T05:13:29.135Z,92.70
2018-08-16T05:15:56.944Z,92.60
2018-08-16T05:18:24.800Z,92.40
2018-08-16T05:20:52.668Z,92.30
2018-08-16T05:23:20.560Z,92.20
2018-08-16T05:25:48.533Z,92.00
2018-08-16T05:28:16.312Z,92.10
2018-08-16T05:30:44.221Z,91.80
2018-08-16T05:33:12.048Z,90.70
2018-08-16T05:35:39.926Z,88.60
2018-08-16T05:38:07.740Z,84.50
2018-08-16T05:40:35.583Z,80.40
2018-08-16T05:43:03.532Z,76.90
2018-08-16T05:45:31.341Z,73.50
2018-08-16T05:47:59.237Z,70.90
2018-08-16T05:50:27.040Z,68.30
2018-08-16T05:52:54.925Z,65.80
2018-08-16T05:55:22.752Z,63.30
2018-08-16T05:57:50.596Z,61.40
2018-08-16T06:00:18.484Z,59.40
2018-08-16T06:02:46.373Z,58.90
2018-08-16T06:05:14.163Z,58.70
2018-08-16T06:07:42.036Z,57.00
2018-08-16T06:10:10.025Z,56.00
2018-08-16T06:12:38.127Z,54.50
2018-08-16T06:15:07.547Z,53.20
2018-08-16T06:17:35.409Z,51.80
2018-08-16T06:20:04.932Z,50.70
2018-08-16T06:22:32.748Z,49.70
2018-08-16T06:25:00.667Z,48.90
2018-08-16T06:27:28.612Z,48.10
2018-08-16T06:29:56.785Z,47.30
2018-08-16T06:32:24.681Z,46.40
2018-08-16T06:34:52.533Z,45.50
2018-08-16T06:37:20.425Z,44.80
2018-08-16T06:39:48.351Z,43.90
2018-08-16T06:42:16.314Z,43.30
2018-08-16T06:44:44.200Z,42.50
2018-08-16T06:47:14.625Z,41.90
2018-08-16T06:49:42.845Z,41.30
2018-08-16T06:52:10.717Z,41.20
2018-08-16T06:54:38.636Z,40.60
2018-08-16T06:57:06.659Z,40.50
2018-08-16T06:59:34.642Z,40.90
2018-08-16T07:02:02.661Z,41.30
2018-08-16T07:04:30.476Z,42.30
2018-08-16T07:06:58.316Z,43.40
2018-08-16T07:09:26.180Z,44.10
2018-08-16T07:11:54.049Z,43.80
2018-08-16T07:14:21.859Z,43.10
2018-08-16T07:16:49.745Z,42.40
2018-08-16T07:19:17.653Z,42.00
2018-08-16T07:21:45.548Z,41.70
2018-08-16T07:24:13.451Z,41.60
2018-08-16T07:26:41.357Z,41.50
2018-08-16T07:29:09.220Z,41.60
2018-08-16T07:31:37.093Z,41.60
2018-08-16T07:34:05.095Z,41.40
2018-08-16T07:36:33.041Z,41.10
2018-08-16T07:39:00.829Z,41.00
2018-08-16T07:41:28.700Z,41.40
2018-08-16T07:43:56.593Z,42.20
2018-08-16T07:46:24.522Z,42.80
2018-08-16T07:48:52.796Z,43.00
2018-08-16T07:51:20.905Z,42.80
2018-08-16T07:53:48.523Z,42.60
2018-08-16T07:56:16.423Z,42.60
2018-08-16T07:58:44.328Z,42.40
2018-08-16T08:01:12.191Z,42.30
2018-08-16T08:03:40.062Z,42.00
2018-08-16T08:06:07.953Z,41.90
2018-08-16T08:08:35.867Z,41.50
2018-08-16T08:11:03.741Z,41.10
2018-08-16T08:13:31.720Z,40.50
2018-08-16T08:15:59.634Z,40.30
2018-08-16T08:18:27.807Z,39.90
2018-08-16T08:20:55.727Z,39.20
2018-08-16T08:23:23.632Z,39.00
2018-08-16T08:25:51.597Z,38.70
2018-08-16T08:28:19.512Z,38.50
2018-08-16T08:30:47.408Z,38.20
2018-08-16T08:33:15.264Z,38.20
2018-08-16T08:35:54.371Z,37.00
2018-08-16T08:38:22.271Z,37.00
2018-08-16T08:40:50.160Z,37.00
2018-08-16T08:43:35.328Z,36.80
2018-08-16T08:46:03.157Z,36.10
2018-08-16T08:48:31.554Z,35.70
2018-08-16T08:50:59.455Z,36.20
2018-08-16T08:54:51.576Z,35.40
2018-08-16T08:57:37.193Z,34.80
2018-08-16T09:00:07.840Z,34.40
2018-08-16T09:02:35.800Z,34.30
2018-08-16T09:05:05.003Z,33.90
2018-08-16T09:07:32.952Z,32.80
2018-08-16T09:11:16.278Z,33.10
2018-08-16T09:14:05.757Z,32.80
2018-08-16T09:16:41.401Z,32.30
2018-08-16T09:19:10.109Z,32.40
2018-08-16T09:21:38.001Z,32.30
2018-08-16T09:24:05.969Z,32.20
2018-08-16T09:26:41.114Z,31.60
2018-08-16T09:31:29.427Z,31.40
2018-08-16T09:34:21.700Z,31.10
2018-08-16T09:36:49.573Z,31.00
2018-08-16T09:39:17.457Z,30.50
2018-08-16T09:41:45.326Z,30.60
2018-08-16T09:44:13.192Z,30.60
2018-08-16T09:47:05.636Z,30.20
2018-08-16T09:49:35.579Z,30.20
2018-08-16T09:52:04.764Z,30.20
2018-08-16T09:54:32.675Z,30.10
2018-08-16T09:57:01.777Z,29.90
2018-08-16T09:59:29.704Z,29.60
2018-08-16T10:01:57.573Z,29.40
2018-08-16T10:04:25.536Z,29.50
2018-08-16T10:06:53.456Z,29.10
2018-08-16T10:09:24.471Z,29.30
2018-08-16T10:11:52.615Z,29.40
2018-08-16T10:14:20.849Z,30.00
2018-08-16T10:16:48.716Z,29.20
2018-08-16T10:19:16.553Z,29.10
2018-08-16T10:21:44.424Z,29.10
2018-08-16T10:24:12.389Z,29.10
2018-08-16T10:26:40.273Z,29.20
2018-08-16T10:29:09.717Z,29.00
2018-08-16T10:31:37.557Z,28.70
2018-08-16T10:34:05.420Z,28.30
2018-08-16T10:36:33.335Z,28.70
2018-08-16T10:39:01.169Z,28.90
2018-08-16T10:41:29.461Z,28.70
2018-08-16T10:43:57.384Z,28.40
2018-08-16T10:46:25.253Z,28.50
2018-08-16T10:48:53.169Z,28.30
2018-08-16T10:51:21.068Z,28.10
2018-08-16T10:53:48.956Z,28.20
2018-08-16T10:56:16.858Z,27.90
2018-08-16T10:58:44.761Z,27.80
2018-08-16T11:01:12.677Z,27.80
2018-08-16T11:03:40.601Z,27.60
2018-08-16T11:06:08.492Z,27.70
2018-08-16T11:08:36.384Z,27.70
2018-08-16T11:11:04.460Z,27.90
2018-08-16T11:13:32.320Z,28.00
2018-08-16T11:16:00.131Z,28.00
2018-08-16T11:18:27.928Z,27.80
2018-08-16T11:20:55.800Z,27.60
2018-08-16T11:23:23.700Z,27.70
2018-08-16T11:25:51.608Z,27.70
2018-08-16T11:28:19.463Z,27.60
2018-08-16T11:30:47.325Z,27.30
2018-08-16T11:33:15.220Z,27.30
2018-08-16T11:35:43.099Z,28.00
2018-08-16T11:38:10.928Z,27.40
2018-08-16T11:40:38.854Z,27.50
2018-08-16T11:43:06.617Z,27.10
2018-08-16T11:45:34.419Z,26.90
2018-08-16T11:48:02.232Z,27.10
2018-08-16T11:50:30.184Z,27.40
2018-08-16T11:52:58.037Z,27.40
2018-08-16T11:55:25.920Z,27.10
2018-08-16T11:57:53.828Z,27.10
2018-08-16T12:00:21.752Z,27.10
2018-08-16T12:02:49.640Z,27.10
2018-08-16T12:05:17.529Z,27.10
2018-08-16T12:07:45.449Z,26.90
2018-08-16T12:10:13.269Z,26.90
2018-08-16T12:12:41.134Z,27.00
2018-08-16T12:18:00.304Z,27.00
2018-08-16T12:20:27.844Z,27.20
2018-08-16T12:22:55.332Z,27.40
2018-08-16T12:25:22.830Z,27.30
2018-08-16T12:27:50.328Z,27.20
2018-08-16T12:30:17.835Z,27.00
2018-08-16T12:32:45.323Z,26.70
2018-08-16T12:35:12.840Z,26.50
2018-08-16T12:37:40.393Z,26.10
2018-08-16T12:40:07.875Z,26.10
2018-08-16T12:42:35.375Z,26.30
2018-08-16T12:45:03.232Z,26.30
2018-08-16T12:47:30.758Z,26.10
2018-08-16T12:49:58.277Z,26.20
2018-08-16T12:52:25.788Z,26.00
2018-08-16T12:54:53.283Z,25.70
2018-08-16T12:57:20.795Z,25.60
2018-08-16T12:59:48.320Z,25.70
2018-08-16T13:02:15.831Z,25.70
2018-08-16T13:04:43.336Z,25.60
2018-08-16T13:07:10.844Z,25.60
2018-08-16T13:09:38.347Z,25.60
2018-08-16T13:12:05.872Z,25.80
2018-08-16T13:14:33.373Z,25.60
2018-08-16T13:17:00.891Z,25.50
2018-08-16T13:19:28.383Z,25.80
2018-08-16T13:21:55.905Z,25.60
2018-08-16T13:24:23.436Z,25.70
2018-08-16T13:26:50.958Z,26.30
2018-08-16T13:29:18.663Z,25.70
2018-08-16T13:31:46.179Z,25.70
2018-08-16T13:34:13.681Z,25.70
2018-08-16T13:36:41.196Z,25.50
2018-08-16T13:39:11.463Z,25.50
2018-08-16T13:41:39.140Z,25.60
2018-08-16T13:44:06.791Z,25.60
2018-08-16T13:46:34.290Z,25.70
2018-08-16T13:49:01.835Z,25.70
2018-08-16T13:51:29.357Z,25.90
2018-08-16T13:53:56.867Z,25.80
2018-08-16T13:56:24.376Z,25.80
2018-08-16T13:58:51.889Z,25.80
2018-08-16T14:01:19.402Z,26.30
2018-08-16T14:03:46.903Z,25.70
2018-08-16T14:06:14.415Z,25.50
2018-08-16T14:08:41.919Z,25.60
2018-08-16T14:11:09.431Z,25.50
2018-08-16T14:13:36.923Z,25.40
2018-08-16T14:16:04.423Z,25.20
2018-08-16T14:18:31.960Z,25.40
2018-08-16T14:20:59.464Z,25.50
2018-08-16T14:23:33.691Z,25.50
2018-08-16T14:26:01.264Z,25.50
2018-08-16T14:28:28.902Z,25.60
2018-08-16T14:30:56.411Z,25.50
2018-08-16T14:33:23.914Z,25.60
2018-08-16T14:35:51.417Z,25.40
2018-08-16T14:38:18.936Z,25.60
2018-08-16T14:40:46.451Z,25.70
2018-08-16T14:43:13.951Z,25.70
2018-08-16T14:45:41.443Z,25.70
2018-08-16T14:48:09.604Z,25.70
2018-08-16T14:50:38.180Z,25.90
2018-08-16T14:53:05.796Z,25.80
2018-08-16T14:55:33.304Z,25.90
2018-08-16T14:58:00.815Z,26.00
2018-08-16T15:00:28.348Z,26.10
2018-08-16T15:02:55.866Z,26.10
2018-08-16T15:05:23.388Z,26.20
2018-08-16T15:07:50.900Z,26.20
2018-08-16T15:10:18.391Z,26.20
2018-08-16T15:12:46.034Z,26.30
2018-08-16T15:15:13.548Z,26.40
2018-08-16T15:17:41.052Z,26.40
2018-08-16T15:20:08.559Z,26.40
2018-08-16T15:22:36.059Z,26.30
2018-08-16T15:25:04.446Z,26.30
2018-08-16T15:27:31.952Z,26.40
2018-08-16T15:29:59.459Z,26.40
2018-08-16T15:32:26.963Z,26.40
2018-08-16T15:34:54.468Z,26.50
2018-08-16T15:37:22.003Z,26.60
2018-08-16T15:39:49.483Z,26.60
2018-08-16T15:42:16.995Z,26.60
2018-08-16T15:44:44.502Z,27.30
2018-08-16T15:47:11.995Z,26.80
2018-08-16T15:49:39.516Z,27.00
2018-08-16T15:52:07.019Z,27.00
2018-08-16T15:54:34.523Z,27.00
2018-08-16T15:57:02.038Z,27.10
2018-08-16T15:59:29.612Z,27.10
2018-08-16T16:01:57.135Z,27.30
2018-08-16T16:04:24.642Z,27.40
2018-08-16T16:06:52.175Z,27.60
2018-08-16T16:09:19.680Z,27.60
2018-08-16T16:11:47.202Z,27.70
2018-08-16T16:14:14.711Z,27.80
2018-08-16T16:16:42.212Z,27.90
2018-08-16T16:19:09.724Z,28.20
2018-08-16T16:21:37.218Z,28.40
2018-08-16T16:24:04.783Z,28.70
2018-08-16T16:26:32.294Z,28.70
2018-08-16T16:28:59.803Z,28.90
2018-08-16T16:31:27.317Z,29.10
2018-08-16T16:33:54.824Z,29.20
2018-08-16T16:36:22.332Z,29.30
2018-08-16T16:38:49.838Z,29.50
2018-08-16T16:41:17.384Z,29.70
2018-08-16T16:43:44.896Z,29.80
2018-08-16T16:46:12.388Z,30.00
2018-08-16T16:48:39.903Z,30.10
2018-08-16T16:51:07.450Z,30.40
2018-08-16T16:53:34.971Z,30.60
2018-08-16T16:56:02.476Z,30.70
2018-08-16T16:58:29.995Z,31.00
2018-08-16T17:00:57.496Z,31.20
2018-08-16T17:03:24.987Z,31.50
2018-08-16T17:05:52.488Z,31.70
2018-08-16T17:08:20.008Z,31.90
2018-08-16T17:10:47.521Z,32.20
2018-08-16T17:13:15.063Z,32.40
2018-08-16T17:15:42.579Z,32.50
2018-08-16T17:18:10.079Z,32.80
2018-08-16T17:20:37.598Z,33.00
2018-08-16T17:23:05.175Z,33.20
2018-08-16T17:25:32.660Z,33.30
2018-08-16T17:28:00.159Z,33.50
2018-08-16T17:30:27.667Z,33.70
2018-08-16T17:32:55.408Z,33.90
2018-08-16T17:35:23.068Z,34.10
2018-08-16T17:37:50.587Z,34.20
2018-08-16T17:40:18.091Z,34.30
2018-08-16T17:42:45.608Z,34.50
2018-08-16T17:45:13.202Z,35.00
2018-08-16T17:47:40.760Z,35.10
2018-08-16T17:50:08.319Z,35.40
2018-08-16T17:52:35.815Z,35.60
2018-08-16T17:55:03.367Z,35.90
2018-08-16T17:57:30.874Z,36.20
2018-08-16T17:59:58.405Z,36.30
2018-08-16T18:02:25.913Z,36.50
2018-08-16T18:04:53.422Z,36.60
2018-08-16T18:07:20.935Z,36.80
2018-08-16T18:09:48.447Z,37.10
2018-08-16T18:12:15.963Z,37.40
2018-08-16T18:14:43.479Z,37.70
2018-08-16T18:17:10.976Z,38.10
2018-08-16T18:19:38.491Z,38.20
2018-08-16T18:22:06.531Z,38.40
2018-08-16T18:24:34.043Z,38.70
2018-08-16T18:27:01.547Z,39.00
2018-08-16T18:29:29.051Z,39.40
2018-08-16T18:31:56.546Z,39.60
2018-08-16T18:34:24.065Z,39.80
2018-08-16T18:36:51.658Z,40.00
2018-08-16T18:39:19.087Z,40.40
2018-08-16T18:41:46.604Z,40.80
2018-08-16T18:44:14.119Z,41.20
2018-08-16T18:46:41.614Z,41.50
2018-08-16T18:49:09.144Z,41.90
2018-08-16T18:51:36.682Z,42.30
2018-08-16T18:54:04.216Z,42.60
2018-08-16T18:56:31.732Z,42.90
2018-08-16T18:58:59.251Z,43.10
2018-08-16T19:01:26.768Z,43.40
2018-08-16T19:03:54.283Z,43.70
2018-08-16T19:06:21.786Z,44.10
2018-08-16T19:08:49.308Z,44.20
2018-08-16T19:11:16.850Z,44.60
2018-08-16T19:13:44.359Z,44.80
2018-08-16T19:16:11.863Z,45.00
2018-08-16T19:18:39.404Z,45.40
2018-08-16T19:21:06.911Z,45.40
2018-08-16T19:23:34.420Z,46.40
2018-08-16T19:26:02.036Z,46.00
2018-08-16T19:28:29.556Z,46.30
2018-08-16T19:30:57.055Z,46.40
2018-08-16T19:33:24.562Z,46.70
2018-08-16T19:35:52.115Z,46.90
2018-08-16T19:38:19.573Z,47.70
2018-08-16T19:40:47.083Z,47.30
2018-08-16T19:43:14.595Z,47.50
2018-08-16T19:45:42.115Z,47.70
2018-08-16T19:48:09.753Z,48.10
2018-08-16T19:50:37.151Z,48.20
2018-08-16T19:53:04.672Z,48.40
2018-08-16T19:55:32.199Z,48.50
2018-08-16T19:57:59.724Z,48.70
2018-08-16T20:00:27.256Z,49.00
2018-08-16T20:02:54.790Z,49.20
2018-08-16T20:05:22.260Z,49.30
2018-08-16T20:07:49.767Z,49.30
2018-08-16T20:10:17.287Z,49.60
2018-08-16T20:12:44.795Z,49.60
2018-08-16T20:15:12.336Z,49.70
2018-08-16T20:17:39.844Z,49.70
2018-08-16T20:20:07.858Z,49.80
2018-08-16T20:22:35.363Z,49.90
2018-08-16T20:25:03.143Z,50.00
2018-08-16T20:27:30.642Z,50.10
2018-08-16T20:29:58.155Z,50.20
2018-08-16T20:32:25.654Z,50.40
2018-08-16T20:34:53.163Z,50.80
2018-08-16T20:37:20.662Z,50.70
2018-08-16T20:39:48.196Z,50.90
2018-08-16T20:42:15.717Z,50.90
2018-08-16T20:44:43.240Z,51.00
2018-08-16T20:47:10.751Z,51.00
2018-08-16T20:49:38.264Z,51.00
2018-08-16T20:52:05.764Z,51.10
2018-08-16T20:54:33.275Z,51.10
2018-08-16T20:57:00.776Z,51.20
2018-08-16T20:59:28.288Z,51.30
2018-08-16T21:01:55.785Z,51.50
2018-08-16T21:04:23.300Z,51.50
2018-08-16T21:06:50.804Z,51.70
2018-08-16T21:09:18.306Z,51.60
2018-08-16T21:11:45.815Z,51.70
2018-08-16T21:14:13.316Z,52.10
2018-08-16T21:16:40.819Z,52.00
2018-08-16T21:19:08.315Z,51.90
2018-08-16T21:21:35.848Z,52.00
2018-08-16T21:24:03.352Z,52.20
2018-08-16T21:26:30.842Z,52.30
2018-08-16T21:28:58.359Z,52.50
2018-08-16T21:31:25.870Z,52.40
2018-08-16T21:33:53.623Z,52.50
2018-08-16T21:36:21.140Z,53.10
2018-08-16T21:38:48.647Z,52.40
2018-08-16T21:41:16.163Z,52.50
2018-08-16T21:43:43.672Z,52.70
2018-08-16T21:46:11.185Z,52.80
2018-08-16T21:48:38.679Z,52.90
2018-08-16T21:51:06.344Z,53.00
2018-08-16T21:53:34.107Z,53.10
2018-08-16T21:56:01.636Z,53.30
2018-08-16T21:58:29.135Z,53.30
2018-08-16T22:01:01.834Z,53.30
2018-08-16T22:03:29.666Z,53.20
2018-08-16T22:06:02.841Z,53.30
2018-08-16T22:08:48.252Z,53.30
2018-08-16T22:11:15.819Z,53.50
2018-08-16T22:13:43.325Z,54.30
2018-08-16T22:16:11.051Z,54.00
2018-08-16T22:18:38.683Z,53.90
2018-08-16T22:21:06.359Z,53.90
2018-08-16T22:23:33.859Z,53.80
2018-08-16T22:26:01.421Z,53.90
2018-08-16T22:28:28.895Z,53.90
2018-08-16T22:30:56.800Z,53.90
2018-08-16T22:33:24.314Z,54.00
2018-08-16T22:35:51.833Z,54.40
2018-08-16T22:38:19.335Z,54.50
2018-08-16T22:40:46.831Z,54.70
2018-08-16T22:43:14.348Z,54.70
2018-08-16T22:45:41.870Z,54.80
2018-08-16T22:48:09.367Z,55.00
2018-08-16T22:50:37.070Z,55.30
2018-08-16T22:53:04.956Z,55.40
2018-08-16T22:55:33.012Z,55.60
2018-08-16T22:58:00.519Z,55.70
2018-08-16T23:00:28.045Z,55.80
2018-08-16T23:02:55.566Z,55.70
2018-08-16T23:05:23.079Z,55.90
2018-08-16T23:07:50.578Z,56.00
2018-08-16T23:10:18.371Z,56.10
2018-08-16T23:12:45.885Z,56.20
2018-08-16T23:15:13.402Z,56.40
2018-08-16T23:17:40.916Z,56.70
2018-08-16T23:20:09.015Z,56.70
2018-08-16T23:22:36.560Z,57.00
2018-08-16T23:25:04.867Z,57.10
2018-08-16T23:27:32.372Z,57.10
2018-08-16T23:29:59.904Z,57.30
2018-08-16T23:32:27.454Z,57.40
2018-08-16T23:34:55.107Z,57.70
2018-08-16T23:37:22.619Z,57.90
2018-08-16T23:39:50.132Z,58.10
2018-08-16T23:42:17.731Z,58.10
2018-08-16T23:44:45.640Z,58.40
2018-08-16T23:47:13.149Z,58.50
2018-08-16T23:49:40.638Z,58.70
2018-08-16T23:52:08.176Z,58.70
2018-08-16T23:54:35.675Z,58.70
2018-08-16T23:57:03.199Z,58.70
2018-08-16T23:59:30.704Z,58.90
